sensor_id;sensor_type;location;lat;lon;timestamp;P1;durP1;ratioP1;P2;durP2;ratioP2
51602;SDS011;37954;51.980;5.850;2022-10-31T00:00:07;8.73;;;6.97;;
51602;SDS011;37954;51.980;5.850;2022-10-31T00:04:21;8.88;;;6.35;;
51602;SDS011;37954;51.980;5.850;2022-10-31T00:08:33;9.27;;;6.75;;
51602;SDS011;37954;51.980;5.850;2022-10-31T00:12:44;10.85;;;6.95;;
51602;SDS011;37954;51.980;5.850;2022-10-31T00:16:55;8.27;;;7.45;;
51602;SDS011;37954;51.980;5.850;2022-10-31T00:21:07;7.55;;;6.75;;
51602;SDS011;37954;51.980;5.850;2022-10-31T00:25:19;9.48;;;6.97;;
51602;SDS011;37954;51.980;5.850;2022-10-31T00:29:31;8.57;;;6.97;;
51602;SDS011;37954;51.980;5.850;2022-10-31T00:33:43;6.85;;;6.15;;
51602;SDS011;37954;51.980;5.850;2022-10-31T00:37:54;9.30;;;7.07;;
51602;SDS011;37954;51.980;5.850;2022-10-31T00:42:06;8.80;;;7.15;;
51602;SDS011;37954;51.980;5.850;2022-10-31T00:46:17;12.02;;;7.15;;
51602;SDS011;37954;51.980;5.850;2022-10-31T00:50:29;8.25;;;7.00;;
51602;SDS011;37954;51.980;5.850;2022-10-31T00:54:41;7.88;;;6.82;;
51602;SDS011;37954;51.980;5.850;2022-10-31T00:58:53;12.15;;;7.43;;
51602;SDS011;37954;51.980;5.850;2022-10-31T01:03:04;7.95;;;6.70;;
51602;SDS011;37954;51.980;5.850;2022-10-31T01:07:16;8.05;;;7.20;;
51602;SDS011;37954;51.980;5.850;2022-10-31T01:11:28;10.55;;;6.93;;
51602;SDS011;37954;51.980;5.850;2022-10-31T01:15:40;9.57;;;7.80;;
51602;SDS011;37954;51.980;5.850;2022-10-31T01:19:51;10.48;;;8.02;;
51602;SDS011;37954;51.980;5.850;2022-10-31T01:24:03;12.70;;;7.30;;
51602;SDS011;37954;51.980;5.850;2022-10-31T01:28:15;10.93;;;7.78;;
51602;SDS011;37954;51.980;5.850;2022-10-31T01:32:27;8.30;;;7.35;;
51602;SDS011;37954;51.980;5.850;2022-10-31T01:36:40;8.93;;;7.53;;
51602;SDS011;37954;51.980;5.850;2022-10-31T01:40:53;10.45;;;7.22;;
51602;SDS011;37954;51.980;5.850;2022-10-31T01:45:05;9.68;;;7.30;;
51602;SDS011;37954;51.980;5.850;2022-10-31T01:49:24;8.40;;;7.50;;
51602;SDS011;37954;51.980;5.850;2022-10-31T01:53:43;10.05;;;7.55;;
51602;SDS011;37954;51.980;5.850;2022-10-31T01:58:02;9.30;;;6.88;;
51602;SDS011;37954;51.980;5.850;2022-10-31T02:02:18;13.98;;;7.30;;
51602;SDS011;37954;51.980;5.850;2022-10-31T02:06:44;7.90;;;7.10;;
51602;SDS011;37954;51.980;5.850;2022-10-31T02:11:01;9.05;;;7.75;;
51602;SDS011;37954;51.980;5.850;2022-10-31T02:15:13;16.05;;;7.85;;
51602;SDS011;37954;51.980;5.850;2022-10-31T02:24:40;9.32;;;7.60;;
51602;SDS011;37954;51.980;5.850;2022-10-31T02:33:41;8.00;;;7.20;;
51602;SDS011;37954;51.980;5.850;2022-10-31T02:38:01;9.68;;;7.32;;
51602;SDS011;37954;51.980;5.850;2022-10-31T02:42:34;8.05;;;6.63;;
51602;SDS011;37954;51.980;5.850;2022-10-31T02:46:54;14.55;;;7.75;;
51602;SDS011;37954;51.980;5.850;2022-10-31T02:51:16;8.45;;;7.22;;
51602;SDS011;37954;51.980;5.850;2022-10-31T02:59:48;9.57;;;7.97;;
51602;SDS011;37954;51.980;5.850;2022-10-31T03:13:11;12.50;;;7.72;;
51602;SDS011;37954;51.980;5.850;2022-10-31T03:22:11;12.57;;;8.48;;
51602;SDS011;37954;51.980;5.850;2022-10-31T03:26:46;10.52;;;7.22;;
51602;SDS011;37954;51.980;5.850;2022-10-31T03:31:00;9.57;;;7.57;;
51602;SDS011;37954;51.980;5.850;2022-10-31T03:35:20;8.80;;;7.72;;
51602;SDS011;37954;51.980;5.850;2022-10-31T03:39:36;13.38;;;7.03;;
51602;SDS011;37954;51.980;5.850;2022-10-31T03:43:53;10.00;;;7.40;;
51602;SDS011;37954;51.980;5.850;2022-10-31T03:48:09;9.60;;;8.20;;
51602;SDS011;37954;51.980;5.850;2022-10-31T03:52:26;9.60;;;8.23;;
51602;SDS011;37954;51.980;5.850;2022-10-31T03:56:47;10.55;;;7.80;;
51602;SDS011;37954;51.980;5.850;2022-10-31T04:01:06;10.20;;;8.07;;
51602;SDS011;37954;51.980;5.850;2022-10-31T04:05:24;8.68;;;7.78;;
51602;SDS011;37954;51.980;5.850;2022-10-31T04:09:39;13.60;;;8.02;;
51602;SDS011;37954;51.980;5.850;2022-10-31T04:13:55;9.48;;;8.52;;
51602;SDS011;37954;51.980;5.850;2022-10-31T04:18:10;10.70;;;8.05;;
51602;SDS011;37954;51.980;5.850;2022-10-31T04:22:21;11.38;;;9.68;;
51602;SDS011;37954;51.980;5.850;2022-10-31T04:26:33;11.80;;;10.15;;
51602;SDS011;37954;51.980;5.850;2022-10-31T04:30:45;14.57;;;10.73;;
51602;SDS011;37954;51.980;5.850;2022-10-31T04:34:57;15.82;;;10.98;;
51602;SDS011;37954;51.980;5.850;2022-10-31T04:39:09;11.32;;;9.70;;
51602;SDS011;37954;51.980;5.850;2022-10-31T04:43:33;10.85;;;9.27;;
51602;SDS011;37954;51.980;5.850;2022-10-31T04:47:45;13.40;;;10.30;;
51602;SDS011;37954;51.980;5.850;2022-10-31T04:51:56;14.55;;;9.50;;
51602;SDS011;37954;51.980;5.850;2022-10-31T04:56:08;11.18;;;9.88;;
51602;SDS011;37954;51.980;5.850;2022-10-31T05:00:25;11.32;;;9.52;;
51602;SDS011;37954;51.980;5.850;2022-10-31T05:04:36;14.60;;;10.15;;
51602;SDS011;37954;51.980;5.850;2022-10-31T05:08:48;11.70;;;9.67;;
51602;SDS011;37954;51.980;5.850;2022-10-31T05:13:00;11.38;;;9.57;;
51602;SDS011;37954;51.980;5.850;2022-10-31T05:17:36;12.00;;;9.60;;
51602;SDS011;37954;51.980;5.850;2022-10-31T05:22:07;11.15;;;9.38;;
51602;SDS011;37954;51.980;5.850;2022-10-31T05:26:19;14.93;;;11.30;;
51602;SDS011;37954;51.980;5.850;2022-10-31T05:30:31;15.65;;;10.45;;
51602;SDS011;37954;51.980;5.850;2022-10-31T05:34:44;15.40;;;11.30;;
51602;SDS011;37954;51.980;5.850;2022-10-31T05:39:13;13.38;;;11.20;;
51602;SDS011;37954;51.980;5.850;2022-10-31T05:43:29;16.95;;;12.50;;
51602;SDS011;37954;51.980;5.850;2022-10-31T05:47:42;21.00;;;15.80;;
51602;SDS011;37954;51.980;5.850;2022-10-31T05:52:20;21.25;;;16.20;;
51602;SDS011;37954;51.980;5.850;2022-10-31T05:56:40;15.18;;;13.63;;
51602;SDS011;37954;51.980;5.850;2022-10-31T06:00:53;16.05;;;14.35;;
51602;SDS011;37954;51.980;5.850;2022-10-31T06:05:04;18.25;;;13.88;;
51602;SDS011;37954;51.980;5.850;2022-10-31T06:09:16;14.63;;;12.02;;
51602;SDS011;37954;51.980;5.850;2022-10-31T06:13:29;18.85;;;11.98;;
51602;SDS011;37954;51.980;5.850;2022-10-31T06:17:57;14.65;;;11.85;;
51602;SDS011;37954;51.980;5.850;2022-10-31T06:22:17;13.45;;;11.25;;
51602;SDS011;37954;51.980;5.850;2022-10-31T06:26:29;13.98;;;11.77;;
51602;SDS011;37954;51.980;5.850;2022-10-31T06:30:40;13.02;;;10.82;;
51602;SDS011;37954;51.980;5.850;2022-10-31T06:34:52;12.60;;;11.30;;
51602;SDS011;37954;51.980;5.850;2022-10-31T06:39:04;23.42;;;13.93;;
51602;SDS011;37954;51.980;5.850;2022-10-31T06:43:16;17.23;;;11.88;;
51602;SDS011;37954;51.980;5.850;2022-10-31T06:47:28;14.07;;;11.98;;
51602;SDS011;37954;51.980;5.850;2022-10-31T06:51:48;16.63;;;11.35;;
51602;SDS011;37954;51.980;5.850;2022-10-31T06:56:01;15.80;;;12.25;;
51602;SDS011;37954;51.980;5.850;2022-10-31T07:00:14;11.90;;;10.68;;
51602;SDS011;37954;51.980;5.850;2022-10-31T07:04:28;17.63;;;13.23;;
51602;SDS011;37954;51.980;5.850;2022-10-31T07:08:40;14.25;;;12.73;;
51602;SDS011;37954;51.980;5.850;2022-10-31T07:12:55;14.73;;;11.95;;
51602;SDS011;37954;51.980;5.850;2022-10-31T07:17:07;22.55;;;12.07;;
51602;SDS011;37954;51.980;5.850;2022-10-31T07:21:23;18.55;;;13.95;;
51602;SDS011;37954;51.980;5.850;2022-10-31T07:25:35;14.75;;;13.25;;
51602;SDS011;37954;51.980;5.850;2022-10-31T07:29:51;18.58;;;14.10;;
51602;SDS011;37954;51.980;5.850;2022-10-31T07:34:02;19.85;;;14.93;;
51602;SDS011;37954;51.980;5.850;2022-10-31T07:38:32;17.95;;;14.40;;
51602;SDS011;37954;51.980;5.850;2022-10-31T07:42:48;19.48;;;13.73;;
51602;SDS011;37954;51.980;5.850;2022-10-31T07:47:24;17.52;;;14.25;;
51602;SDS011;37954;51.980;5.850;2022-10-31T07:52:01;22.27;;;14.68;;
51602;SDS011;37954;51.980;5.850;2022-10-31T07:56:49;18.63;;;14.43;;
51602;SDS011;37954;51.980;5.850;2022-10-31T08:01:00;19.50;;;14.73;;
51602;SDS011;37954;51.980;5.850;2022-10-31T08:05:22;31.42;;;14.88;;
51602;SDS011;37954;51.980;5.850;2022-10-31T08:10:06;23.25;;;17.60;;
51602;SDS011;37954;51.980;5.850;2022-10-31T08:14:19;17.15;;;14.00;;
51602;SDS011;37954;51.980;5.850;2022-10-31T08:18:30;13.18;;;11.02;;
51602;SDS011;37954;51.980;5.850;2022-10-31T08:22:58;11.88;;;9.63;;
51602;SDS011;37954;51.980;5.850;2022-10-31T08:27:19;10.85;;;8.68;;
51602;SDS011;37954;51.980;5.850;2022-10-31T08:31:42;11.05;;;7.55;;
51602;SDS011;37954;51.980;5.850;2022-10-31T08:36:26;10.02;;;7.70;;
51602;SDS011;37954;51.980;5.850;2022-10-31T08:40:48;9.02;;;7.53;;
51602;SDS011;37954;51.980;5.850;2022-10-31T08:45:00;10.13;;;7.20;;
51602;SDS011;37954;51.980;5.850;2022-10-31T08:49:13;8.90;;;7.78;;
51602;SDS011;37954;51.980;5.850;2022-10-31T08:53:27;10.50;;;8.23;;
51602;SDS011;37954;51.980;5.850;2022-10-31T08:58:03;12.55;;;9.57;;
51602;SDS011;37954;51.980;5.850;2022-10-31T09:02:25;10.35;;;8.13;;
51602;SDS011;37954;51.980;5.850;2022-10-31T09:06:42;9.30;;;7.95;;
51602;SDS011;37954;51.980;5.850;2022-10-31T09:11:14;12.15;;;7.63;;
51602;SDS011;37954;51.980;5.850;2022-10-31T09:15:45;7.97;;;6.70;;
51602;SDS011;37954;51.980;5.850;2022-10-31T09:20:04;11.88;;;7.35;;
51602;SDS011;37954;51.980;5.850;2022-10-31T09:24:19;9.82;;;7.35;;
51602;SDS011;37954;51.980;5.850;2022-10-31T09:28:30;8.20;;;7.40;;
51602;SDS011;37954;51.980;5.850;2022-10-31T09:32:55;10.38;;;8.27;;
51602;SDS011;37954;51.980;5.850;2022-10-31T09:37:11;11.73;;;8.32;;
51602;SDS011;37954;51.980;5.850;2022-10-31T09:46:47;10.32;;;8.30;;
51602;SDS011;37954;51.980;5.850;2022-10-31T09:51:09;9.30;;;7.97;;
51602;SDS011;37954;51.980;5.850;2022-10-31T09:55:40;10.68;;;8.75;;
51602;SDS011;37954;51.980;5.850;2022-10-31T09:59:56;14.38;;;9.30;;
51602;SDS011;37954;51.980;5.850;2022-10-31T10:04:28;15.63;;;10.40;;
51602;SDS011;37954;51.980;5.850;2022-10-31T10:08:52;15.10;;;10.60;;
51602;SDS011;37954;51.980;5.850;2022-10-31T10:18:06;11.38;;;9.02;;
51602;SDS011;37954;51.980;5.850;2022-10-31T10:31:29;17.73;;;12.10;;
51602;SDS011;37954;51.980;5.850;2022-10-31T10:35:50;17.67;;;12.70;;
51602;SDS011;37954;51.980;5.850;2022-10-31T10:44:27;18.23;;;13.25;;
51602;SDS011;37954;51.980;5.850;2022-10-31T10:49:10;19.52;;;13.07;;
51602;SDS011;37954;51.980;5.850;2022-10-31T10:58:20;16.75;;;12.63;;
51602;SDS011;37954;51.980;5.850;2022-10-31T11:02:32;14.25;;;11.07;;
51602;SDS011;37954;51.980;5.850;2022-10-31T11:06:43;18.23;;;10.18;;
51602;SDS011;37954;51.980;5.850;2022-10-31T11:10:59;13.65;;;10.48;;
51602;SDS011;37954;51.980;5.850;2022-10-31T11:15:21;13.48;;;10.00;;
51602;SDS011;37954;51.980;5.850;2022-10-31T11:19:35;17.90;;;10.13;;
51602;SDS011;37954;51.980;5.850;2022-10-31T11:23:47;18.02;;;10.93;;
51602;SDS011;37954;51.980;5.850;2022-10-31T11:28:02;15.38;;;11.40;;
51602;SDS011;37954;51.980;5.850;2022-10-31T11:32:23;18.35;;;12.35;;
51602;SDS011;37954;51.980;5.850;2022-10-31T11:36:37;18.63;;;12.65;;
51602;SDS011;37954;51.980;5.850;2022-10-31T11:40:53;25.85;;;12.30;;
51602;SDS011;37954;51.980;5.850;2022-10-31T11:49:42;19.33;;;12.35;;
51602;SDS011;37954;51.980;5.850;2022-10-31T11:53:57;17.95;;;14.75;;
51602;SDS011;37954;51.980;5.850;2022-10-31T11:58:23;22.50;;;13.70;;
51602;SDS011;37954;51.980;5.850;2022-10-31T12:02:36;21.83;;;13.55;;
51602;SDS011;37954;51.980;5.850;2022-10-31T12:06:54;19.80;;;14.32;;
51602;SDS011;37954;51.980;5.850;2022-10-31T12:15:39;18.92;;;13.82;;
51602;SDS011;37954;51.980;5.850;2022-10-31T12:24:55;29.58;;;13.88;;
51602;SDS011;37954;51.980;5.850;2022-10-31T12:38:18;19.45;;;13.75;;
51602;SDS011;37954;51.980;5.850;2022-10-31T12:43:10;18.17;;;13.82;;
51602;SDS011;37954;51.980;5.850;2022-10-31T12:47:40;18.63;;;14.35;;
51602;SDS011;37954;51.980;5.850;2022-10-31T12:52:22;20.60;;;13.52;;
51602;SDS011;37954;51.980;5.850;2022-10-31T13:01:38;19.10;;;13.50;;
51602;SDS011;37954;51.980;5.850;2022-10-31T13:05:54;21.85;;;14.52;;
51602;SDS011;37954;51.980;5.850;2022-10-31T13:10:20;17.80;;;13.88;;
51602;SDS011;37954;51.980;5.850;2022-10-31T13:14:39;27.40;;;14.50;;
51602;SDS011;37954;51.980;5.850;2022-10-31T13:18:55;19.35;;;14.35;;
51602;SDS011;37954;51.980;5.850;2022-10-31T13:23:27;20.00;;;14.30;;
51602;SDS011;37954;51.980;5.850;2022-10-31T13:28:03;24.13;;;15.55;;
51602;SDS011;37954;51.980;5.850;2022-10-31T13:32:24;18.52;;;14.00;;
51602;SDS011;37954;51.980;5.850;2022-10-31T13:36:42;21.42;;;15.50;;
51602;SDS011;37954;51.980;5.850;2022-10-31T13:46:21;21.85;;;14.35;;
51602;SDS011;37954;51.980;5.850;2022-10-31T13:50:34;20.52;;;14.40;;
51602;SDS011;37954;51.980;5.850;2022-10-31T13:54:46;19.20;;;12.98;;
51602;SDS011;37954;51.980;5.850;2022-10-31T14:03:35;19.20;;;13.00;;
51602;SDS011;37954;51.980;5.850;2022-10-31T14:08:21;18.90;;;14.27;;
51602;SDS011;37954;51.980;5.850;2022-10-31T14:12:38;17.10;;;12.43;;
51602;SDS011;37954;51.980;5.850;2022-10-31T14:16:54;17.58;;;13.75;;
51602;SDS011;37954;51.980;5.850;2022-10-31T14:21:41;25.83;;;13.90;;
51602;SDS011;37954;51.980;5.850;2022-10-31T14:25:48;23.40;;;13.32;;
51602;SDS011;37954;51.980;5.850;2022-10-31T14:30:07;19.92;;;13.63;;
51602;SDS011;37954;51.980;5.850;2022-10-31T14:34:26;20.60;;;12.98;;
51602;SDS011;37954;51.980;5.850;2022-10-31T14:51:43;18.10;;;12.68;;
51602;SDS011;37954;51.980;5.850;2022-10-31T14:55:57;17.02;;;12.48;;
51602;SDS011;37954;51.980;5.850;2022-10-31T15:00:18;21.50;;;12.65;;
51602;SDS011;37954;51.980;5.850;2022-10-31T15:04:31;20.95;;;13.00;;
51602;SDS011;37954;51.980;5.850;2022-10-31T15:08:50;20.13;;;12.98;;
51602;SDS011;37954;51.980;5.850;2022-10-31T15:13:09;20.60;;;13.80;;
51602;SDS011;37954;51.980;5.850;2022-10-31T15:17:22;19.90;;;13.18;;
51602;SDS011;37954;51.980;5.850;2022-10-31T15:21:35;22.05;;;13.90;;
51602;SDS011;37954;51.980;5.850;2022-10-31T15:26:28;16.58;;;13.00;;
51602;SDS011;37954;51.980;5.850;2022-10-31T15:30:32;21.00;;;14.10;;
51602;SDS011;37954;51.980;5.850;2022-10-31T15:34:43;23.13;;;13.18;;
51602;SDS011;37954;51.980;5.850;2022-10-31T15:38:56;20.75;;;14.25;;
51602;SDS011;37954;51.980;5.850;2022-10-31T15:43:11;16.75;;;13.30;;
51602;SDS011;37954;51.980;5.850;2022-10-31T15:47:28;18.92;;;12.95;;
51602;SDS011;37954;51.980;5.850;2022-10-31T15:51:41;22.27;;;15.43;;
51602;SDS011;37954;51.980;5.850;2022-10-31T15:55:53;20.23;;;15.05;;
51602;SDS011;37954;51.980;5.850;2022-10-31T16:00:20;17.90;;;13.80;;
51602;SDS011;37954;51.980;5.850;2022-10-31T16:04:48;19.67;;;14.82;;
51602;SDS011;37954;51.980;5.850;2022-10-31T16:09:02;22.25;;;15.73;;
51602;SDS011;37954;51.980;5.850;2022-10-31T16:13:15;19.63;;;14.15;;
51602;SDS011;37954;51.980;5.850;2022-10-31T16:17:27;29.08;;;15.00;;
51602;SDS011;37954;51.980;5.850;2022-10-31T16:21:39;21.63;;;15.20;;
51602;SDS011;37954;51.980;5.850;2022-10-31T16:25:50;17.95;;;13.77;;
51602;SDS011;37954;51.980;5.850;2022-10-31T16:30:24;23.55;;;14.68;;
51602;SDS011;37954;51.980;5.850;2022-10-31T16:34:40;22.00;;;14.77;;
51602;SDS011;37954;51.980;5.850;2022-10-31T16:38:55;23.58;;;14.57;;
51602;SDS011;37954;51.980;5.850;2022-10-31T16:43:08;20.10;;;14.18;;
51602;SDS011;37954;51.980;5.850;2022-10-31T16:47:22;22.73;;;14.30;;
51602;SDS011;37954;51.980;5.850;2022-10-31T16:51:38;23.17;;;14.43;;
51602;SDS011;37954;51.980;5.850;2022-10-31T17:00:12;24.38;;;14.60;;
51602;SDS011;37954;51.980;5.850;2022-10-31T17:04:24;21.92;;;14.60;;
51602;SDS011;37954;51.980;5.850;2022-10-31T17:08:36;20.40;;;13.88;;
51602;SDS011;37954;51.980;5.850;2022-10-31T17:12:47;21.27;;;14.68;;
51602;SDS011;37954;51.980;5.850;2022-10-31T17:17:00;26.50;;;15.50;;
51602;SDS011;37954;51.980;5.850;2022-10-31T17:21:15;25.13;;;15.50;;
51602;SDS011;37954;51.980;5.850;2022-10-31T17:25:31;17.35;;;13.50;;
51602;SDS011;37954;51.980;5.850;2022-10-31T17:29:42;22.02;;;14.93;;
51602;SDS011;37954;51.980;5.850;2022-10-31T17:33:54;23.73;;;15.00;;
51602;SDS011;37954;51.980;5.850;2022-10-31T17:38:13;22.17;;;15.48;;
51602;SDS011;37954;51.980;5.850;2022-10-31T17:42:25;24.30;;;14.88;;
51602;SDS011;37954;51.980;5.850;2022-10-31T17:46:37;24.92;;;14.77;;
51602;SDS011;37954;51.980;5.850;2022-10-31T17:50:49;24.75;;;14.65;;
51602;SDS011;37954;51.980;5.850;2022-10-31T17:55:00;23.10;;;14.15;;
51602;SDS011;37954;51.980;5.850;2022-10-31T17:59:12;24.50;;;14.45;;
51602;SDS011;37954;51.980;5.850;2022-10-31T18:03:24;20.70;;;14.00;;
51602;SDS011;37954;51.980;5.850;2022-10-31T18:07:36;21.35;;;13.88;;
51602;SDS011;37954;51.980;5.850;2022-10-31T18:11:47;24.17;;;13.32;;
51602;SDS011;37954;51.980;5.850;2022-10-31T18:15:59;25.10;;;14.75;;
51602;SDS011;37954;51.980;5.850;2022-10-31T18:20:10;17.70;;;13.02;;
51602;SDS011;37954;51.980;5.850;2022-10-31T18:24:22;16.90;;;13.30;;
51602;SDS011;37954;51.980;5.850;2022-10-31T18:28:35;27.92;;;14.52;;
51602;SDS011;37954;51.980;5.850;2022-10-31T18:32:48;23.60;;;13.38;;
51602;SDS011;37954;51.980;5.850;2022-10-31T18:37:01;23.35;;;13.15;;
51602;SDS011;37954;51.980;5.850;2022-10-31T18:41:13;16.77;;;12.10;;
51602;SDS011;37954;51.980;5.850;2022-10-31T18:45:25;15.82;;;12.00;;
51602;SDS011;37954;51.980;5.850;2022-10-31T18:49:56;15.65;;;11.85;;
51602;SDS011;37954;51.980;5.850;2022-10-31T18:54:08;18.25;;;12.30;;
51602;SDS011;37954;51.980;5.850;2022-10-31T18:58:19;18.17;;;12.05;;
51602;SDS011;37954;51.980;5.850;2022-10-31T19:02:31;18.70;;;12.30;;
51602;SDS011;37954;51.980;5.850;2022-10-31T19:06:43;21.27;;;12.05;;
51602;SDS011;37954;51.980;5.850;2022-10-31T19:10:54;16.67;;;12.05;;
51602;SDS011;37954;51.980;5.850;2022-10-31T19:15:06;14.85;;;11.25;;
51602;SDS011;37954;51.980;5.850;2022-10-31T19:19:17;17.73;;;12.15;;
51602;SDS011;37954;51.980;5.850;2022-10-31T19:23:30;17.30;;;10.88;;
51602;SDS011;37954;51.980;5.850;2022-10-31T19:27:42;20.92;;;10.40;;
51602;SDS011;37954;51.980;5.850;2022-10-31T19:31:53;16.65;;;10.07;;
51602;SDS011;37954;51.980;5.850;2022-10-31T19:40:18;12.90;;;8.95;;
51602;SDS011;37954;51.980;5.850;2022-10-31T19:44:31;12.93;;;9.00;;
51602;SDS011;37954;51.980;5.850;2022-10-31T19:48:43;15.13;;;9.48;;
51602;SDS011;37954;51.980;5.850;2022-10-31T19:52:55;11.30;;;8.35;;
51602;SDS011;37954;51.980;5.850;2022-10-31T19:57:07;13.30;;;7.95;;
51602;SDS011;37954;51.980;5.850;2022-10-31T20:01:19;10.68;;;7.60;;
51602;SDS011;37954;51.980;5.850;2022-10-31T20:05:32;17.20;;;8.10;;
51602;SDS011;37954;51.980;5.850;2022-10-31T20:09:44;14.35;;;7.43;;
51602;SDS011;37954;51.980;5.850;2022-10-31T20:13:56;14.23;;;7.25;;
51602;SDS011;37954;51.980;5.850;2022-10-31T20:18:09;10.15;;;7.13;;
51602;SDS011;37954;51.980;5.850;2022-10-31T20:22:20;9.48;;;6.63;;
51602;SDS011;37954;51.980;5.850;2022-10-31T20:26:32;14.68;;;6.90;;
51602;SDS011;37954;51.980;5.850;2022-10-31T20:30:44;11.90;;;6.68;;
51602;SDS011;37954;51.980;5.850;2022-10-31T20:34:56;9.02;;;6.05;;
51602;SDS011;37954;51.980;5.850;2022-10-31T20:39:07;9.93;;;6.55;;
51602;SDS011;37954;51.980;5.850;2022-10-31T20:43:19;9.18;;;5.43;;
51602;SDS011;37954;51.980;5.850;2022-10-31T20:47:31;10.18;;;6.22;;
51602;SDS011;37954;51.980;5.850;2022-10-31T20:51:42;7.55;;;5.60;;
51602;SDS011;37954;51.980;5.850;2022-10-31T20:56:04;10.27;;;6.18;;
51602;SDS011;37954;51.980;5.850;2022-10-31T21:00:18;7.50;;;5.80;;
51602;SDS011;37954;51.980;5.850;2022-10-31T21:04:29;11.32;;;6.18;;
51602;SDS011;37954;51.980;5.850;2022-10-31T21:08:41;11.15;;;6.22;;
51602;SDS011;37954;51.980;5.850;2022-10-31T21:12:53;6.97;;;6.00;;
51602;SDS011;37954;51.980;5.850;2022-10-31T21:17:04;7.95;;;6.43;;
51602;SDS011;37954;51.980;5.850;2022-10-31T21:21:24;8.70;;;6.32;;
51602;SDS011;37954;51.980;5.850;2022-10-31T21:25:42;9.63;;;6.75;;
51602;SDS011;37954;51.980;5.850;2022-10-31T21:29:54;9.65;;;6.75;;
51602;SDS011;37954;51.980;5.850;2022-10-31T21:34:05;13.73;;;6.60;;
51602;SDS011;37954;51.980;5.850;2022-10-31T21:38:17;8.27;;;6.15;;
51602;SDS011;37954;51.980;5.850;2022-10-31T21:42:29;8.07;;;5.85;;
51602;SDS011;37954;51.980;5.850;2022-10-31T21:46:40;7.93;;;5.60;;
51602;SDS011;37954;51.980;5.850;2022-10-31T21:50:52;7.97;;;5.32;;
51602;SDS011;37954;51.980;5.850;2022-10-31T21:55:03;5.45;;;4.32;;
51602;SDS011;37954;51.980;5.850;2022-10-31T21:59:15;7.22;;;5.00;;
51602;SDS011;37954;51.980;5.850;2022-10-31T22:03:27;6.35;;;4.95;;
51602;SDS011;37954;51.980;5.850;2022-10-31T22:07:38;9.05;;;6.22;;
51602;SDS011;37954;51.980;5.850;2022-10-31T22:11:50;9.20;;;6.35;;
51602;SDS011;37954;51.980;5.850;2022-10-31T22:16:05;7.68;;;5.53;;
51602;SDS011;37954;51.980;5.850;2022-10-31T22:20:18;10.73;;;5.32;;
51602;SDS011;37954;51.980;5.850;2022-10-31T22:24:31;7.93;;;5.28;;
51602;SDS011;37954;51.980;5.850;2022-10-31T22:28:49;6.95;;;4.60;;
51602;SDS011;37954;51.980;5.850;2022-10-31T22:33:10;7.30;;;4.72;;
51602;SDS011;37954;51.980;5.850;2022-10-31T22:37:22;6.13;;;5.13;;
51602;SDS011;37954;51.980;5.850;2022-10-31T22:41:34;10.07;;;4.90;;
51602;SDS011;37954;51.980;5.850;2022-10-31T22:45:52;8.02;;;4.78;;
51602;SDS011;37954;51.980;5.850;2022-10-31T22:50:05;6.10;;;4.70;;
51602;SDS011;37954;51.980;5.850;2022-10-31T22:54:17;8.10;;;4.63;;
51602;SDS011;37954;51.980;5.850;2022-10-31T22:58:29;8.48;;;4.72;;
51602;SDS011;37954;51.980;5.850;2022-10-31T23:02:41;9.95;;;4.90;;
51602;SDS011;37954;51.980;5.850;2022-10-31T23:06:53;8.70;;;4.40;;
51602;SDS011;37954;51.980;5.850;2022-10-31T23:11:14;16.05;;;5.43;;
51602;SDS011;37954;51.980;5.850;2022-10-31T23:15:27;5.95;;;4.60;;
51602;SDS011;37954;51.980;5.850;2022-10-31T23:19:39;5.03;;;4.00;;
51602;SDS011;37954;51.980;5.850;2022-10-31T23:23:50;4.43;;;3.85;;
51602;SDS011;37954;51.980;5.850;2022-10-31T23:28:02;11.90;;;5.05;;
51602;SDS011;37954;51.980;5.850;2022-10-31T23:36:35;5.32;;;3.90;;
51602;SDS011;37954;51.980;5.850;2022-10-31T23:40:47;6.35;;;3.90;;
51602;SDS011;37954;51.980;5.850;2022-10-31T23:44:58;8.98;;;4.65;;
51602;SDS011;37954;51.980;5.850;2022-10-31T23:49:10;5.65;;;4.25;;
51602;SDS011;37954;51.980;5.850;2022-10-31T23:53:22;5.65;;;3.70;;
51602;SDS011;37954;51.980;5.850;2022-10-31T23:57:33;4.82;;;3.88;;
